Time;durP1;ratioP1;P1;durP2;ratioP2;P2;SDS_P1;SDS_P2;PMS_P1;PMS_P2;Temp;Humidity;BMP_temperature;BMP_pressure;BME280_temperature;BME280_humidity;BME280_pressure;Samples;Min_cycle;Max_cycle;Signal;HPM_P1;HPM_P2
2022/09/30 00:01:41;;;;;;;3.65;2.45;;;;;;;11.38;67.08;96358.63;4859099;29;20261;-77
2022/09/30 00:04:12;;;;;;;3.63;2.50;;;;;;;11.33;66.61;96366.47;4839991;29;20221;-77
2022/09/30 00:06:38;;;;;;;3.35;2.20;;;;;;;11.41;66.95;96362.50;4824197;29;20295;-77
2022/09/30 00:09:04;;;;;;;2.58;2.05;;;;;;;11.36;66.37;96358.13;4853471;29;20298;-77
2022/09/30 00:11:32;;;;;;;2.17;1.67;;;;;;;11.31;66.46;96365.97;4855270;29;20117;-78
2022/09/30 00:13:59;;;;;;;3.10;1.90;;;;;;;11.33;66.58;96365.69;4838942;29;20268;-78
2022/09/30 00:16:28;;;;;;;3.70;2.25;;;;;;;11.31;66.90;96368.56;4855166;29;20355;-77
2022/09/30 00:18:54;;;;;;;3.25;2.40;;;;;;;11.33;66.46;96376.13;4854184;29;20739;-78
2022/09/30 00:21:19;;;;;;;2.85;2.00;;;;;;;11.32;66.66;96375.31;4839550;29;20200;-78
2022/09/30 00:23:45;;;;;;;3.70;1.98;;;;;;;11.28;66.47;96379.53;4839802;29;20306;-77
2022/09/30 00:26:13;;;;;;;3.05;1.95;;;;;;;11.22;66.86;96380.59;4870469;29;20082;-77
2022/09/30 00:28:40;;;;;;;4.68;2.22;;;;;;;11.14;66.86;96379.34;4854365;29;20186;-77
2022/09/30 00:31:08;;;;;;;3.25;2.40;;;;;;;10.97;66.96;96377.06;4854840;29;20320;-78
2022/09/30 00:33:34;;;;;;;4.22;2.00;;;;;;;11.02;67.04;96376.25;4839002;29;20446;-78
2022/09/30 00:36:00;;;;;;;3.90;2.08;;;;;;;11.08;67.56;96384.81;4854732;29;20306;-78
2022/09/30 00:38:25;;;;;;;2.75;1.90;;;;;;;11.15;67.37;96396.50;4853794;29;20596;-77
2022/09/30 00:40:51;;;;;;;2.70;1.83;;;;;;;11.11;67.14;96386.91;4856999;29;20276;-77
2022/09/30 00:43:39;;;;;;;3.55;2.30;;;;;;;11.02;67.21;96392.66;4839349;29;20201;-79
2022/09/30 00:46:05;;;;;;;4.28;2.40;;;;;;;11.05;67.16;96394.75;4849365;28;20199;-77
2022/09/30 00:48:36;;;;;;;2.92;2.08;;;;;;;10.96;67.06;96398.16;4853145;29;20295;-79
2022/09/30 00:51:04;;;;;;;3.95;2.38;;;;;;;11.03;66.49;96403.84;4854455;29;20587;-77
2022/09/30 00:53:51;;;;;;;3.42;2.33;;;;;;;10.89;67.20;96401.03;4854085;29;20619;-78
2022/09/30 00:56:20;;;;;;;2.75;2.05;;;;;;;11.05;66.63;96399.94;4839399;29;20192;-78
2022/09/30 00:58:53;;;;;;;2.67;1.85;;;;;;;10.97;66.45;96394.50;4835207;29;20236;-79
2022/09/30 01:01:20;;;;;;;2.20;2.00;;;;;;;11.06;66.40;96398.88;4837380;29;20109;-76
2022/09/30 01:03:56;;;;;;;2.35;2.00;;;;;;;10.85;66.24;96398.19;4847519;29;20287;-76
2022/09/30 01:06:23;;;;;;;3.60;2.60;;;;;;;10.96;66.08;96400.75;4860104;29;20177;-77
2022/09/30 01:08:49;;;;;;;1.73;1.50;;;;;;;10.94;65.97;96401.00;4833424;29;20194;-77
2022/09/30 01:11:14;;;;;;;2.25;1.48;;;;;;;10.86;65.93;96398.94;4834075;29;20170;-76
2022/09/30 01:13:41;;;;;;;1.92;1.73;;;;;;;10.77;65.81;96392.72;4834094;29;20204;-77
2022/09/30 01:16:25;;;;;;;2.30;1.50;;;;;;;10.55;66.04;96393.81;4849080;29;20711;-77
2022/09/30 01:19:20;;;;;;;3.50;1.98;;;;;;;10.62;66.14;96393.53;4849658;29;20252;-77
2022/09/30 01:22:10;;;;;;;1.88;1.48;;;;;;;10.68;65.83;96398.47;4838554;29;20282;-77
2022/09/30 01:24:38;;;;;;;3.72;1.65;;;;;;;10.71;66.07;96405.00;4837867;29;20714;-77
2022/09/30 01:27:15;;;;;;;3.30;1.38;;;;;;;10.56;66.01;96400.59;4853810;29;20592;-77
2022/09/30 01:30:15;;;;;;;2.42;1.45;;;;;;;10.54;65.81;96401.88;4855079;29;20253;-77
2022/09/30 01:32:52;;;;;;;1.85;1.30;;;;;;;10.68;65.85;96408.13;4852202;29;20676;-77
2022/09/30 01:35:17;;;;;;;2.40;1.40;;;;;;;10.65;66.12;96406.03;4853231;29;20232;-77
2022/09/30 01:38:01;;;;;;;2.28;1.50;;;;;;;10.37;66.29;96402.94;4836737;29;20734;-76
2022/09/30 01:40:52;;;;;;;2.47;1.10;;;;;;;10.53;66.11;96401.09;4852704;29;20281;-77
2022/09/30 01:43:30;;;;;;;2.33;1.15;;;;;;;10.34;66.26;96402.69;4852446;29;20584;-77
2022/09/30 01:46:31;;;;;;;2.38;1.42;;;;;;;10.24;66.20;96393.03;4852297;29;20275;-77
2022/09/30 01:48:56;;;;;;;2.72;1.08;;;;;;;10.40;66.22;96401.63;4865121;29;20764;-77
2022/09/30 01:51:36;;;;;;;1.80;1.40;;;;;;;10.16;66.33;96390.94;4868533;29;20336;-77
2022/09/30 01:54:12;;;;;;;2.65;0.90;;;;;;;10.18;65.89;96410.47;4837457;29;20191;-77
2022/09/30 01:56:41;;;;;;;1.90;1.25;;;;;;;10.21;65.86;96407.34;4843443;29;20230;-77
2022/09/30 01:59:11;;;;;;;2.65;1.30;;;;;;;10.14;65.54;96401.63;4834477;29;20773;-77
2022/09/30 02:01:57;;;;;;;2.50;1.10;;;;;;;10.20;66.13;96405.78;4852292;29;20207;-76
2022/09/30 02:04:32;;;;;;;;;;;;;;;9.87;66.22;96404.44;4868566;29;20231;-77
2022/09/30 02:07:02;;;;;;;1.98;1.27;;;;;;;9.99;65.17;96396.41;4838080;29;20056;-77
2022/09/30 02:09:31;;;;;;;1.65;1.10;;;;;;;9.99;65.08;96401.59;4852945;29;20647;-77
2022/09/30 02:11:58;;;;;;;1.70;1.40;;;;;;;9.99;65.49;96412.00;4853136;29;20255;-77
2022/09/30 02:14:33;;;;;;;1.80;1.52;;;;;;;9.87;65.34;96420.06;4853443;29;20204;-77
2022/09/30 02:17:04;;;;;;;2.58;1.08;;;;;;;9.82;65.59;96420.84;4854638;29;20291;-77
2022/09/30 02:19:36;;;;;;;1.52;1.27;;;;;;;9.75;66.20;96426.28;4818082;29;20325;-77
2022/09/30 02:22:29;;;;;;;2.17;0.90;;;;;;;9.65;65.97;96422.91;4852745;29;20280;-77
2022/09/30 02:24:59;;;;;;;1.48;1.00;;;;;;;9.71;65.43;96427.06;4819288;29;20311;-77
2022/09/30 02:27:31;;;;;;;2.75;1.02;;;;;;;9.59;65.54;96423.91;4836496;29;20499;-77
2022/09/30 02:29:58;;;;;;;1.33;0.80;;;;;;;9.65;65.19;96422.91;4850867;29;20620;-77
2022/09/30 02:32:32;;;;;;;1.20;0.80;;;;;;;9.51;65.67;96433.75;4848624;29;20105;-77
2022/09/30 02:35:11;;;;;;;1.55;1.30;;;;;;;9.34;65.99;96422.81;4851374;29;20646;-77
2022/09/30 02:37:40;;;;;;;1.70;1.00;;;;;;;9.38;65.40;96431.63;4848952;29;20628;-77
2022/09/30 02:40:32;;;;;;;1.50;1.00;;;;;;;9.47;66.25;96437.91;4868208;29;20094;-77
2022/09/30 02:42:57;;;;;;;0.98;0.70;;;;;;;9.49;65.77;96438.44;4849473;29;20252;-77
2022/09/30 02:45:23;;;;;;;2.47;0.75;;;;;;;9.48;65.53;96436.09;4851252;29;20650;-77
2022/09/30 02:47:54;;;;;;;1.15;0.93;;;;;;;9.44;65.56;96441.03;4836251;29;20283;-77
2022/09/30 02:50:23;;;;;;;1.10;1.00;;;;;;;9.46;65.40;96435.53;4852212;29;20722;-77
2022/09/30 02:53:00;;;;;;;1.23;0.80;;;;;;;9.29;65.34;96433.16;4852254;29;20601;-77
2022/09/30 02:56:03;;;;;;;1.35;0.77;;;;;;;9.28;65.42;96431.59;4836448;29;20610;-77
2022/09/30 02:58:29;;;;;;;2.35;0.80;;;;;;;9.44;65.52;96428.03;4851973;29;20398;-77
2022/09/30 03:00:55;;;;;;;2.08;0.82;;;;;;;9.39;65.22;96430.63;4836671;29;20276;-77
2022/09/30 03:03:29;;;;;;;2.72;0.90;;;;;;;9.28;65.44;96429.00;4835789;29;20579;-77
2022/09/30 03:05:54;;;;;;;1.13;0.90;;;;;;;9.40;65.18;96432.16;4851947;29;20212;-77
2022/09/30 03:08:20;;;;;;;1.90;1.48;;;;;;;9.30;65.74;96432.13;4851876;29;20266;-76
2022/09/30 03:10:49;;;;;;;2.13;1.10;;;;;;;9.31;65.62;96428.50;4836407;29;20709;-77
2022/09/30 03:13:54;;;;;;;2.17;1.30;;;;;;;9.09;66.38;96426.84;4836798;29;20662;-76
2022/09/30 03:16:50;;;;;;;1.42;1.05;;;;;;;9.02;65.82;96434.09;4851861;29;20298;-77
2022/09/30 03:19:34;;;;;;;2.17;1.08;;;;;;;9.05;65.95;96430.97;4853753;29;20395;-77
2022/09/30 03:22:02;;;;;;;2.47;1.15;;;;;;;9.22;65.81;96440.41;4851914;29;20280;-77
2022/09/30 03:24:45;;;;;;;1.88;1.00;;;;;;;9.08;65.52;96445.25;4853659;29;20646;-77
2022/09/30 03:27:17;;;;;;;1.98;1.10;;;;;;;9.08;66.00;96440.88;4853569;29;20248;-77
2022/09/30 03:29:52;;;;;;;2.65;1.52;;;;;;;9.10;65.45;96441.41;4835779;29;20157;-77
2022/09/30 03:32:46;;;;;;;3.78;1.10;;;;;;;9.18;65.47;96445.31;4851539;29;20205;-77
2022/09/30 03:35:36;;;;;;;1.67;1.00;;;;;;;8.79;65.42;96448.22;4851163;29;20409;-77
2022/09/30 03:38:17;;;;;;;2.42;1.35;;;;;;;8.69;65.60;96443.75;4836087;29;20258;-77
2022/09/30 03:41:11;;;;;;;3.28;1.38;;;;;;;8.61;65.71;96446.81;4853551;29;20572;-77
2022/09/30 03:43:38;;;;;;;2.42;1.23;;;;;;;8.85;65.26;96443.84;4845834;29;20220;-77
2022/09/30 03:46:16;;;;;;;1.83;0.90;;;;;;;8.64;65.03;96451.50;4850933;28;20220;-77
2022/09/30 03:48:42;;;;;;;1.52;1.10;;;;;;;8.72;65.23;96453.66;4851158;29;20325;-77
2022/09/30 03:51:08;;;;;;;3.22;2.35;;;;;;;8.69;65.38;96464.53;4850891;29;20193;-77
2022/09/30 03:53:39;;;;;;;2.10;1.73;;;;;;;8.56;65.12;96464.94;4863689;29;20169;-76
2022/09/30 03:56:04;;;;;;;3.67;1.52;;;;;;;8.65;64.63;96468.63;4836176;29;20121;-77
2022/09/30 03:58:30;;;;;;;3.05;1.35;;;;;;;8.63;65.06;96460.31;4851529;29;20655;-77
2022/09/30 04:00:56;;;;;;;2.22;1.20;;;;;;;8.60;64.72;96466.00;4852807;29;20691;-77
2022/09/30 04:03:22;;;;;;;2.92;1.30;;;;;;;8.55;65.86;96464.16;4853823;29;20797;-77
2022/09/30 04:05:48;;;;;;;3.70;1.77;;;;;;;8.43;66.02;96472.13;4851619;29;20715;-77
2022/09/30 04:08:13;;;;;;;3.97;2.00;;;;;;;8.38;66.03;96474.66;4835433;29;20279;-77
2022/09/30 04:10:40;;;;;;;3.88;1.73;;;;;;;8.44;65.35;96478.84;4850699;29;20275;-77
2022/09/30 04:13:06;;;;;;;4.60;1.92;;;;;;;8.48;65.13;96468.00;4851512;29;20279;-77
2022/09/30 04:15:32;;;;;;;2.33;1.45;;;;;;;8.47;64.98;96474.22;4847301;29;20224;-77
2022/09/30 04:17:58;;;;;;;2.83;1.30;;;;;;;8.34;64.76;96486.53;4851191;29;20212;-77
2022/09/30 04:20:23;;;;;;;3.22;1.30;;;;;;;8.27;64.35;96490.34;4852122;29;20797;-77
2022/09/30 04:22:48;;;;;;;1.40;0.77;;;;;;;8.27;64.50;96488.53;4846549;29;20161;-77
2022/09/30 04:25:14;;;;;;;3.47;1.20;;;;;;;8.25;65.33;96498.38;4868600;29;20361;-77
2022/09/30 04:27:39;;;;;;;2.67;1.20;;;;;;;8.19;65.59;96491.56;4853038;29;20157;-77
2022/09/30 04:30:05;;;;;;;1.83;1.30;;;;;;;8.24;66.15;96489.03;4851795;29;20182;-77
2022/09/30 04:32:30;;;;;;;1.25;0.95;;;;;;;8.30;65.26;96493.25;4836250;29;20280;-77
2022/09/30 04:34:56;;;;;;;3.03;1.45;;;;;;;8.29;65.58;96491.66;4852015;29;20343;-77
2022/09/30 04:37:21;;;;;;;2.00;0.85;;;;;;;8.25;65.33;96490.59;4851978;29;20294;-77
2022/09/30 04:39:46;;;;;;;2.95;1.52;;;;;;;8.31;65.65;96497.41;4865844;29;20414;-77
2022/09/30 04:42:12;;;;;;;1.23;1.08;;;;;;;8.33;65.68;96494.53;4867380;29;20220;-77
2022/09/30 04:44:37;;;;;;;2.33;1.10;;;;;;;8.33;65.66;96491.94;4860258;29;20305;-77
2022/09/30 04:47:03;;;;;;;3.20;0.85;;;;;;;8.30;65.94;96493.25;4836466;29;20662;-77
2022/09/30 04:49:28;;;;;;;1.83;1.05;;;;;;;8.25;65.90;96491.38;4850831;29;20388;-77
2022/09/30 04:51:54;;;;;;;2.70;1.17;;;;;;;8.28;65.67;96494.50;4851454;29;20354;-77
2022/09/30 04:54:19;;;;;;;1.35;0.70;;;;;;;8.24;65.44;96499.41;4854268;29;20727;-77
2022/09/30 04:56:44;;;;;;;3.30;1.15;;;;;;;8.24;64.97;96495.00;4840477;29;20201;-77
2022/09/30 04:59:10;;;;;;;2.38;1.10;;;;;;;8.34;64.86;96506.50;4839331;29;20113;-77
2022/09/30 05:01:35;;;;;;;1.90;1.70;;;;;;;8.30;64.22;96513.22;4839803;29;20624;-77
2022/09/30 05:04:01;;;;;;;2.17;0.85;;;;;;;8.21;64.46;96516.25;4857091;29;20216;-77
2022/09/30 05:06:26;;;;;;;1.77;1.05;;;;;;;8.29;63.93;96516.81;4840181;29;20210;-77
2022/09/30 05:08:52;;;;;;;3.40;1.02;;;;;;;8.19;66.04;96520.09;4839163;29;20199;-77
2022/09/30 05:11:19;;;;;;;3.13;0.93;;;;;;;8.17;65.11;96515.16;4837072;29;20586;-77
2022/09/30 05:13:45;;;;;;;1.38;1.00;;;;;;;8.20;65.28;96524.28;4839406;29;20273;-77
2022/09/30 05:16:11;;;;;;;1.30;1.10;;;;;;;8.11;65.93;96528.34;4840003;29;20189;-77
2022/09/30 05:18:38;;;;;;;1.70;1.17;;;;;;;8.10;65.85;96529.34;4838400;29;20173;-77
2022/09/30 05:21:04;;;;;;;2.33;1.00;;;;;;;8.04;66.21;96526.72;4855072;29;20245;-77
2022/09/30 05:23:30;;;;;;;1.50;1.02;;;;;;;8.07;66.03;96528.00;4839530;29;20173;-77
2022/09/30 05:25:56;;;;;;;3.65;1.45;;;;;;;8.13;66.32;96537.44;4855569;29;20165;-77
2022/09/30 05:28:22;;;;;;;2.30;0.80;;;;;;;8.18;66.00;96541.88;4837737;29;20198;-77
2022/09/30 05:30:48;;;;;;;1.00;0.63;;;;;;;8.20;66.23;96557.97;4853800;29;20264;-77
2022/09/30 05:33:14;;;;;;;1.20;0.80;;;;;;;8.16;66.89;96564.69;4853848;29;20245;-77
2022/09/30 05:35:40;;;;;;;1.40;1.00;;;;;;;8.09;66.62;96567.47;4851449;29;20385;-77
2022/09/30 05:38:06;;;;;;;5.75;1.58;;;;;;;7.99;66.95;96565.53;4846877;29;20679;-77
2022/09/30 05:40:31;;;;;;;2.40;1.35;;;;;;;8.06;67.05;96573.91;4860615;29;20664;-76
2022/09/30 05:42:57;;;;;;;7.70;3.90;;;;;;;8.04;66.71;96573.38;4862670;29;20196;-77
2022/09/30 05:45:23;;;;;;;6.35;4.63;;;;;;;8.12;66.95;96579.94;4863812;29;20199;-77
2022/09/30 05:47:53;;;;;;;8.18;3.95;;;;;;;8.16;66.27;96575.84;4850031;29;20200;-77
2022/09/30 05:50:19;;;;;;;4.03;2.90;;;;;;;8.27;66.62;96570.75;4853972;29;20200;-77
2022/09/30 05:52:45;;;;;;;3.88;2.63;;;;;;;8.31;66.39;96582.19;4836915;29;20740;-77
2022/09/30 05:55:10;;;;;;;5.68;3.95;;;;;;;8.19;66.76;96579.75;4853839;29;20263;-77
2022/09/30 05:57:35;;;;;;;24.88;14.75;;;;;;;8.13;66.75;96580.72;4853561;29;20182;-77
2022/09/30 06:00:01;;;;;;;102.30;56.00;;;;;;;8.16;66.92;96585.44;4864894;29;20306;-77
2022/09/30 06:02:26;;;;;;;64.03;35.38;;;;;;;8.21;66.20;96588.84;4854194;29;20273;-77
2022/09/30 06:04:52;;;;;;;41.22;24.33;;;;;;;8.30;66.48;96591.03;4863523;29;20698;-77
2022/09/30 06:07:17;;;;;;;62.95;36.92;;;;;;;8.20;66.46;96587.28;4853172;29;20671;-77
2022/09/30 06:09:42;;;;;;;18.85;14.07;;;;;;;8.13;66.66;96593.69;4836847;29;20204;-76
2022/09/30 06:12:08;;;;;;;15.75;10.90;;;;;;;8.01;66.86;96594.59;4852573;29;20252;-77
2022/09/30 06:14:34;;;;;;;14.27;8.63;;;;;;;8.08;66.79;96599.59;4861094;29;20200;-76
2022/09/30 06:16:59;;;;;;;10.98;7.20;;;;;;;8.18;67.21;96604.13;4859395;29;20650;-77
2022/09/30 06:19:29;;;;;;;6.80;3.50;;;;;;;8.28;66.75;96608.63;4853097;29;20247;-77
2022/09/30 06:21:55;;;;;;;10.75;3.63;;;;;;;8.41;66.53;96619.44;4868953;29;20298;-77
2022/09/30 06:24:20;;;;;;;7.95;4.82;;;;;;;8.45;66.42;96611.97;4861578;29;20378;-77
2022/09/30 06:26:45;;;;;;;11.95;4.68;;;;;;;8.34;66.52;96610.25;4837049;29;20287;-77
2022/09/30 06:29:11;;;;;;;8.07;3.65;;;;;;;8.35;66.98;96612.59;4853370;29;20216;-77
2022/09/30 06:31:36;;;;;;;7.13;4.03;;;;;;;8.47;67.05;96619.50;4853746;29;20336;-77
2022/09/30 06:34:02;;;;;;;6.50;3.78;;;;;;;8.55;66.98;96622.44;4820690;29;20220;-77
2022/09/30 06:36:28;;;;;;;7.18;4.90;;;;;;;8.54;66.79;96618.28;4836351;29;20650;-77
2022/09/30 06:38:54;;;;;;;9.90;5.57;;;;;;;8.67;67.15;96631.88;4851076;29;20393;-77
2022/09/30 06:41:20;;;;;;;6.93;4.28;;;;;;;8.78;67.34;96626.53;4852014;29;20197;-76
2022/09/30 06:43:46;;;;;;;7.07;4.22;;;;;;;8.93;66.83;96622.53;4853039;29;20196;-77
2022/09/30 06:46:11;;;;;;;5.32;3.70;;;;;;;9.04;66.90;96618.97;4854262;29;20105;-76
2022/09/30 06:48:37;;;;;;;5.30;3.00;;;;;;;9.12;66.79;96628.13;4853589;29;20196;-76
2022/09/30 06:51:03;;;;;;;7.53;3.72;;;;;;;9.16;67.43;96640.34;4852137;29;20101;-76
2022/09/30 06:53:28;;;;;;;6.45;3.30;;;;;;;9.33;66.85;96640.22;4854148;29;20310;-77
2022/09/30 06:55:55;;;;;;;7.00;3.92;;;;;;;9.41;66.51;96635.59;4868140;29;20579;-76
2022/09/30 06:58:23;;;;;;;4.78;2.97;;;;;;;9.65;67.01;96638.63;4836040;29;20671;-77
2022/09/30 07:01:04;;;;;;;5.75;3.17;;;;;;;9.70;66.77;96634.25;4868355;29;20219;-76
2022/09/30 07:03:32;;;;;;;5.20;3.13;;;;;;;10.03;66.23;96647.13;4851785;29;20173;-76
2022/09/30 07:05:59;;;;;;;4.03;2.80;;;;;;;10.21;66.08;96649.31;4851760;29;20296;-76
2022/09/30 07:08:27;;;;;;;4.55;2.97;;;;;;;10.35;65.68;96638.44;4850416;29;20286;-77
2022/09/30 07:10:53;;;;;;;4.60;2.92;;;;;;;10.46;65.92;96643.41;4850979;29;20208;-76
2022/09/30 07:13:18;;;;;;;2.97;2.63;;;;;;;10.52;65.92;96639.03;4852281;29;20184;-76
2022/09/30 07:15:43;;;;;;;4.75;3.90;;;;;;;10.69;65.52;96654.41;4834904;29;20170;-77
2022/09/30 07:18:09;;;;;;;5.43;3.22;;;;;;;10.96;65.16;96654.19;4831710;29;20196;-76
2022/09/30 07:20:34;;;;;;;5.20;3.85;;;;;;;11.17;64.88;96662.81;4851403;29;20260;-77
2022/09/30 07:23:00;;;;;;;6.65;5.18;;;;;;;11.44;64.46;96665.13;4834584;29;20300;-76
2022/09/30 07:25:25;;;;;;;8.45;5.25;;;;;;;11.60;63.70;96676.34;4849783;29;20303;-76
2022/09/30 07:27:51;;;;;;;5.63;4.88;;;;;;;11.70;63.99;96683.34;4833188;29;20280;-77
2022/09/30 07:30:17;;;;;;;6.85;4.47;;;;;;;11.86;63.72;96683.31;4834430;29;20177;-77
2022/09/30 07:32:42;;;;;;;6.68;5.20;;;;;;;11.95;64.55;96687.78;4859189;29;20409;-78
2022/09/30 07:35:08;;;;;;;6.57;4.20;;;;;;;11.90;65.12;96681.75;4825946;29;20182;-77
2022/09/30 07:37:34;;;;;;;4.97;2.75;;;;;;;12.08;64.77;96680.44;4847156;29;20173;-77
2022/09/30 07:40:02;;;;;;;4.10;3.08;;;;;;;12.29;64.33;96683.78;4848844;29;20177;-77
2022/09/30 07:42:29;;;;;;;4.38;3.20;;;;;;;12.35;63.88;96673.06;4850882;29;20192;-77
2022/09/30 07:44:55;;;;;;;5.13;3.25;;;;;;;12.29;64.23;96681.94;4864625;29;20248;-77
2022/09/30 07:47:21;;;;;;;4.97;2.80;;;;;;;12.41;64.29;96673.81;4832895;29;20276;-78
2022/09/30 07:49:47;;;;;;;4.32;3.63;;;;;;;12.74;63.51;96682.75;4833707;29;20259;-77
2022/09/30 07:52:12;;;;;;;4.25;2.85;;;;;;;13.09;62.69;96685.41;4848917;29;20279;-77
2022/09/30 07:54:39;;;;;;;5.43;3.10;;;;;;;13.10;61.66;96685.16;4848262;29;20216;-77
2022/09/30 07:57:04;;;;;;;5.50;3.45;;;;;;;13.13;61.77;96689.06;4833275;29;20161;-77
2022/09/30 07:59:31;;;;;;;3.35;2.75;;;;;;;13.34;61.28;96696.78;4849490;29;20204;-77
2022/09/30 08:01:56;;;;;;;4.10;3.45;;;;;;;13.51;61.14;96686.69;4848845;29;20174;-76
2022/09/30 08:04:23;;;;;;;2.88;2.67;;;;;;;13.68;61.27;96705.38;4848354;29;20212;-78
2022/09/30 08:06:56;;;;;;;4.05;2.60;;;;;;;13.89;60.73;96705.19;4861584;29;20542;-78
2022/09/30 08:09:23;;;;;;;2.83;2.22;;;;;;;14.00;60.34;96703.25;4848782;29;20699;-78
2022/09/30 08:11:48;;;;;;;2.33;1.77;;;;;;;14.10;59.28;96710.22;4833533;29;20109;-78
2022/09/30 08:14:19;;;;;;;2.40;1.88;;;;;;;14.10;59.30;96703.13;4830774;29;20221;-78
2022/09/30 08:16:45;;;;;;;3.97;3.30;;;;;;;14.40;59.29;96701.25;4861959;29;20162;-78
2022/09/30 08:19:16;;;;;;;2.90;2.40;;;;;;;14.45;58.96;96710.91;4849014;29;20192;-77
2022/09/30 08:21:42;;;;;;;1.92;1.33;;;;;;;14.65;58.58;96707.25;4833257;29;20196;-77
2022/09/30 08:24:08;;;;;;;2.45;2.25;;;;;;;14.71;58.40;96706.16;4830829;29;20688;-77
2022/09/30 08:26:34;;;;;;;3.13;1.10;;;;;;;14.54;58.46;96715.22;4832149;29;20284;-76
2022/09/30 08:28:59;;;;;;;5.47;2.67;;;;;;;14.74;58.89;96708.97;4861468;28;20331;-77
2022/09/30 08:31:25;;;;;;;4.60;3.95;;;;;;;14.82;58.52;96712.78;4868166;29;20710;-77
2022/09/30 08:33:50;;;;;;;2.67;1.95;;;;;;;14.91;58.15;96707.72;4850772;29;20678;-77
2022/09/30 08:36:21;;;;;;;2.15;1.73;;;;;;;15.05;57.40;96708.56;4853417;29;20437;-77
2022/09/30 08:38:47;;;;;;;1.80;1.25;;;;;;;15.43;56.77;96715.59;4836962;29;20250;-77
2022/09/30 08:41:30;;;;;;;1.40;0.95;;;;;;;15.58;56.25;96715.38;4852221;29;20274;-77
2022/09/30 08:44:17;;;;;;;1.05;0.70;;;;;;;15.34;56.27;96718.09;4836970;29;20228;-77
2022/09/30 08:46:48;;;;;;;1.80;1.20;;;;;;;15.67;56.40;96723.34;4851944;29;20291;-77
2022/09/30 08:49:16;;;;;;;2.40;1.02;;;;;;;15.86;55.95;96724.09;4852358;29;20197;-77
2022/09/30 08:51:44;;;;;;;1.10;1.00;;;;;;;15.93;55.69;96730.81;4854946;29;20169;-77
2022/09/30 08:54:14;;;;;;;1.92;1.10;;;;;;;16.00;55.42;96723.34;4852121;29;20212;-77
2022/09/30 08:56:39;;;;;;;2.33;1.00;;;;;;;15.84;54.79;96726.22;4851574;29;20772;-76
2022/09/30 08:59:07;;;;;;;1.35;1.00;;;;;;;15.63;55.71;96732.88;4836536;29;20195;-76
2022/09/30 09:01:35;;;;;;;2.72;1.33;;;;;;;15.81;55.63;96723.41;4853248;29;20350;-77
2022/09/30 09:04:02;;;;;;;2.60;0.90;;;;;;;15.89;54.97;96723.53;4852405;29;20227;-76
2022/09/30 09:07:05;;;;;;;2.00;1.08;;;;;;;15.79;55.70;96731.56;4820859;29;20204;-77
2022/09/30 09:09:39;;;;;;;1.83;1.23;;;;;;;15.96;54.34;96735.50;4854555;29;20170;-77
2022/09/30 09:12:13;;;;;;;2.08;1.20;;;;;;;15.95;54.99;96733.94;4852386;29;20216;-77
2022/09/30 09:14:53;;;;;;;2.67;1.40;;;;;;;15.97;54.09;96734.41;4853538;29;20375;-77
2022/09/30 09:17:31;;;;;;;2.72;1.45;;;;;;;16.03;53.83;96736.66;4853573;29;20651;-77
2022/09/30 09:20:24;;;;;;;2.72;1.45;;;;;;;16.00;53.76;96747.75;4851268;29;20216;-77
2022/09/30 09:22:49;;;;;;;2.95;1.48;;;;;;;16.36;53.34;96744.47;4817760;29;20291;-76
2022/09/30 09:25:18;;;;;;;2.65;1.70;;;;;;;16.37;54.03;96743.41;4848924;29;20117;-77
2022/09/30 09:27:50;;;;;;;2.08;1.70;;;;;;;16.40;53.65;96750.72;4836383;29;20681;-77
2022/09/30 09:30:24;;;;;;;2.40;1.50;;;;;;;16.44;53.41;96748.28;4841362;29;20192;-77
2022/09/30 09:32:57;;;;;;;1.95;1.60;;;;;;;16.50;52.41;96754.19;4848997;29;20201;-78
2022/09/30 09:35:25;;;;;;;2.15;1.40;;;;;;;16.82;52.96;96755.94;4850836;29;20737;-77
2022/09/30 09:40:56;;;;;;;3.90;1.48;;;;;;;17.18;52.32;96749.94;4851257;29;20349;-77
2022/09/30 09:43:29;;;;;;;1.33;1.23;;;;;;;17.38;51.03;96760.00;4851613;29;20335;-77
2022/09/30 09:46:13;;;;;;;2.78;1.20;;;;;;;17.44;50.94;96758.03;4850942;29;20560;-77
2022/09/30 09:48:38;;;;;;;2.47;1.50;;;;;;;17.73;50.92;96754.97;4850847;29;20673;-77
2022/09/30 09:51:05;;;;;;;3.08;1.60;;;;;;;17.94;50.64;96759.75;4851462;29;20255;-78
2022/09/30 09:53:57;;;;;;;2.40;1.20;;;;;;;17.92;49.23;96756.66;4835797;29;20336;-77
2022/09/30 09:56:28;;;;;;;1.50;1.40;;;;;;;18.12;48.78;96758.78;4852491;29;20643;-77
2022/09/30 09:59:23;;;;;;;3.25;1.50;;;;;;;17.67;49.60;96761.44;4836117;29;20699;-77
2022/09/30 10:01:52;;;;;;;3.53;1.27;;;;;;;17.73;49.52;96770.75;4851301;29;20658;-77
2022/09/30 10:04:23;;;;;;;2.88;1.20;;;;;;;18.05;48.16;96758.44;4850909;29;20177;-77
2022/09/30 10:06:58;;;;;;;1.35;1.23;;;;;;;17.79;50.62;96764.31;4852473;29;20685;-77
2022/09/30 10:09:27;;;;;;;1.85;1.38;;;;;;;17.85;49.40;96758.91;4850549;29;20181;-77
2022/09/30 10:12:04;;;;;;;4.93;1.67;;;;;;;17.93;48.68;96759.00;4835429;29;20811;-77
2022/09/30 10:14:31;;;;;;;1.98;1.10;;;;;;;18.40;47.35;96750.66;4851215;29;20606;-77
2022/09/30 10:17:01;;;;;;;1.42;1.30;;;;;;;18.08;48.70;96755.19;4834905;29;20216;-77
2022/09/30 10:19:29;;;;;;;3.42;1.40;;;;;;;17.98;49.68;96752.81;4843882;29;20208;-78
2022/09/30 10:22:18;;;;;;;1.77;0.98;;;;;;;17.37;50.34;96752.41;4850172;29;20276;-78
2022/09/30 10:24:44;;;;;;;3.58;1.73;;;;;;;17.59;50.37;96749.78;4841022;29;20723;-77
2022/09/30 10:27:30;;;;;;;3.55;1.67;;;;;;;17.34;50.39;96743.25;4834478;29;20199;-77
2022/09/30 10:29:56;;;;;;;1.58;1.00;;;;;;;17.57;50.22;96743.25;4850519;29;20204;-77
2022/09/30 10:32:22;;;;;;;1.88;1.23;;;;;;;17.59;52.15;96749.00;4835047;29;20283;-78
2022/09/30 10:34:54;;;;;;;2.55;1.80;;;;;;;17.59;52.37;96749.00;4857980;29;20646;-77
2022/09/30 10:37:22;;;;;;;2.97;1.67;;;;;;;17.51;52.77;96753.13;4850372;29;20205;-77
2022/09/30 10:39:55;;;;;;;1.63;1.25;;;;;;;17.45;53.05;96753.56;4835030;29;20197;-77
2022/09/30 10:42:23;;;;;;;3.05;1.88;;;;;;;17.71;52.42;96751.84;4850558;29;20256;-77
2022/09/30 10:44:57;;;;;;;3.08;1.55;;;;;;;17.43;53.16;96756.47;4845881;29;20284;-77
2022/09/30 10:47:25;;;;;;;6.03;1.85;;;;;;;17.61;52.55;96754.75;4834705;29;20382;-77
2022/09/30 10:49:56;;;;;;;2.03;1.73;;;;;;;17.54;52.71;96754.38;4834789;29;20191;-77
2022/09/30 10:52:27;;;;;;;3.35;1.67;;;;;;;17.38;52.95;96752.09;4834851;29;20292;-77
2022/09/30 10:54:54;;;;;;;2.72;1.27;;;;;;;17.68;52.52;96756.94;4850481;29;20196;-77
2022/09/30 10:57:28;;;;;;;3.20;1.20;;;;;;;17.63;52.19;96749.94;4834827;29;20181;-77
2022/09/30 10:59:59;;;;;;;1.83;1.55;;;;;;;17.77;52.06;96750.66;4850721;29;20291;-77
2022/09/30 11:02:41;;;;;;;3.85;2.38;;;;;;;17.73;52.60;96748.94;4851739;29;20284;-77
2022/09/30 11:05:14;;;;;;;5.43;2.75;;;;;;;17.95;52.80;96756.06;4834765;29;20593;-77
2022/09/30 11:07:44;;;;;;;2.10;1.88;;;;;;;18.33;52.41;96758.22;4850021;29;20299;-77
2022/09/30 11:10:41;;;;;;;4.85;1.90;;;;;;;18.45;51.13;96749.75;4850051;29;20614;-77
2022/09/30 11:13:14;;;;;;;1.17;1.00;;;;;;;19.02;47.84;96754.22;4850703;29;20381;-77
2022/09/30 11:15:47;;;;;;;2.00;1.02;;;;;;;19.60;48.11;96753.00;4835187;29;20279;-77
2022/09/30 11:18:22;;;;;;;4.57;1.85;;;;;;;20.21;45.80;96744.16;4833262;29;20184;-77
2022/09/30 11:20:53;;;;;;;2.55;1.23;;;;;;;19.99;46.05;96745.16;4819381;29;20626;-77
2022/09/30 11:23:31;;;;;;;1.83;1.20;;;;;;;19.77;46.31;96751.44;4848862;29;20144;-77
2022/09/30 11:26:20;;;;;;;1.75;1.10;;;;;;;20.21;46.92;96754.72;4865603;29;20652;-77
2022/09/30 11:28:55;;;;;;;1.80;1.50;;;;;;;19.73;46.39;96751.25;4849936;29;20260;-78
2022/09/30 11:31:31;;;;;;;1.90;1.65;;;;;;;19.95;46.46;96747.66;4834566;29;20177;-76
2022/09/30 11:34:22;;;;;;;2.45;1.33;;;;;;;20.55;45.64;96750.38;4834399;29;20223;-78
2022/09/30 11:36:57;;;;;;;1.77;1.65;;;;;;;20.90;43.67;96755.47;4833908;29;20269;-77
2022/09/30 11:39:31;;;;;;;1.88;1.60;;;;;;;20.35;45.05;96755.28;4849997;29;20216;-78
2022/09/30 11:41:59;;;;;;;1.77;1.05;;;;;;;20.57;45.38;96756.13;4849898;29;20223;-77
2022/09/30 11:44:31;;;;;;;2.83;1.25;;;;;;;21.55;43.87;96752.53;4847577;29;20220;-77
2022/09/30 11:47:35;;;;;;;2.45;1.23;;;;;;;21.94;42.67;96753.84;4830404;29;20292;-77
2022/09/30 11:50:09;;;;;;;1.20;1.10;;;;;;;23.13;39.17;96749.53;4851707;29;20372;-77
2022/09/30 11:52:46;;;;;;;0.65;0.52;;;;;;;22.89;36.52;96740.47;4850544;29;20312;-77
2022/09/30 11:55:42;;;;;;;0.57;0.57;;;;;;;24.20;32.28;96750.81;4850020;29;20300;-78
2022/09/30 11:58:09;;;;;;;2.17;0.98;;;;;;;24.78;32.43;96745.69;4851837;29;20601;-77